Time;durP1;ratioP1;P1;durP2;ratioP2;P2;SDS_P1;SDS_P2;PMS_P1;PMS_P2;Temp;Humidity;BMP_temperature;BMP_pressure;BME280_temperature;BME280_humidity;BME280_pressure;Samples;Min_cycle;Max_cycle;Signal;HPM_P1;HPM_P2
2024/02/22 00:00:10;;;;;;;1.33;1.00;;;;;;;-145.69;35.51;52159.22;5114677;28;20547;-80
2024/02/22 00:02:37;;;;;;;2.28;0.98;;;;;;;-145.69;35.53;52177.03;5114569;28;20237;-80
2024/02/22 00:05:04;;;;;;;4.65;1.05;;;;;;;-145.69;35.27;52137.44;5114537;28;20232;-80
2024/02/22 00:07:32;;;;;;;2.45;1.20;;;;;;;-145.69;36.12;52145.34;5114454;28;20260;-80
2024/02/22 00:10:00;;;;;;;1.70;1.20;;;;;;;-145.69;35.96;52145.34;5114324;28;20197;-82
2024/02/22 00:12:26;;;;;;;2.30;1.38;;;;;;;-145.69;35.96;52139.41;5114423;28;20197;-82
2024/02/22 00:14:53;;;;;;;2.40;1.35;;;;;;;-145.69;36.23;52161.19;5114222;28;20221;-80
2024/02/22 00:17:19;;;;;;;2.85;1.08;;;;;;;-145.69;36.37;52161.19;5114059;28;20224;-81
2024/02/22 00:19:46;;;;;;;2.60;1.20;;;;;;;-145.69;36.46;52155.25;5114206;27;20201;-80
2024/02/22 00:22:13;;;;;;;3.00;1.20;;;;;;;-145.69;36.65;52155.25;5113985;28;20434;-81
2024/02/22 00:24:40;;;;;;;2.50;1.10;;;;;;;-145.69;37.27;52151.28;5114046;28;20553;-81
2024/02/22 00:27:07;;;;;;;6.95;1.13;;;;;;;-145.69;36.50;52155.25;5114416;28;20206;-80
2024/02/22 00:29:33;;;;;;;1.92;1.17;;;;;;;-145.69;36.98;52153.28;5113989;28;20675;-80
2024/02/22 00:32:00;;;;;;;1.58;1.00;;;;;;;-145.69;36.81;52147.34;5113902;28;20198;-80
2024/02/22 00:34:26;;;;;;;1.52;0.90;;;;;;;-145.69;37.24;52149.31;5113927;28;20201;-80
2024/02/22 00:36:52;;;;;;;2.50;1.40;;;;;;;-145.69;37.17;52151.28;5114038;28;20212;-80
2024/02/22 00:39:19;;;;;;;3.47;1.20;;;;;;;-145.69;37.24;52173.09;5113835;28;20221;-80
2024/02/22 00:41:47;;;;;;;3.13;1.50;;;;;;;-145.69;37.98;52119.63;5113819;28;20204;-79
2024/02/22 00:44:13;;;;;;;1.73;1.00;;;;;;;-145.69;37.74;52165.16;5112978;27;20201;-81
2024/02/22 00:46:40;;;;;;;1.50;1.02;;;;;;;-145.69;38.19;52155.25;5113430;28;20189;-79
2024/02/22 00:49:06;;;;;;;2.35;1.25;;;;;;;-145.69;38.39;52155.25;5113440;28;20198;-82
2024/02/22 00:51:32;;;;;;;1.23;1.00;;;;;;;-145.69;38.21;52123.56;5113770;28;20193;-80
2024/02/22 00:53:59;;;;;;;3.27;1.40;;;;;;;-145.69;39.45;52149.31;5113672;28;20197;-79
2024/02/22 00:56:25;;;;;;;1.65;1.13;;;;;;;-145.69;40.11;52147.34;5113331;28;20652;-79
2024/02/22 00:58:53;;;;;;;1.95;1.38;;;;;;;-145.69;40.68;52151.28;5113441;28;20330;-80
2024/02/22 01:01:19;;;;;;;3.25;1.42;;;;;;;-145.69;41.21;52179.03;5112092;27;20205;-78
2024/02/22 01:03:46;;;;;;;4.10;1.47;;;;;;;-145.69;41.75;52151.28;5112902;28;20205;-79
2024/02/22 01:06:13;;;;;;;2.17;1.40;;;;;;;-145.69;40.98;52143.38;5112669;28;20194;-79
2024/02/22 01:08:40;;;;;;;3.13;1.20;;;;;;;-145.69;42.18;52167.13;5113048;28;20200;-79
2024/02/22 01:11:06;;;;;;;1.90;1.07;;;;;;;-145.69;41.93;52171.09;5112660;28;20201;-78
2024/02/22 01:13:34;;;;;;;1.93;1.40;;;;;;;-145.69;42.05;52179.03;5113257;28;20212;-79
2024/02/22 01:16:02;;;;;;;2.20;1.20;;;;;;;-145.69;42.15;52182.97;5112692;28;20667;-79
2024/02/22 01:18:29;;;;;;;2.03;1.17;;;;;;;-145.69;41.92;52186.94;5112943;28;20232;-79
2024/02/22 01:20:55;;;;;;;2.47;1.40;;;;;;;-145.69;42.26;52177.03;5113284;28;20193;-79
2024/02/22 01:23:22;;;;;;;2.03;1.40;;;;;;;-145.69;42.36;52149.31;5112616;28;20201;-80
2024/02/22 01:25:48;;;;;;;1.95;1.15;;;;;;;-145.69;41.87;52163.19;5113291;28;20678;-82
2024/02/22 01:28:15;;;;;;;2.20;1.17;;;;;;;-145.69;42.31;52165.16;5112582;28;20716;-80
2024/02/22 01:30:41;;;;;;;2.90;1.73;;;;;;;-145.69;42.24;52155.25;5113387;28;20194;-81
2024/02/22 01:33:12;;;;;;;2.13;1.40;;;;;;;-145.69;42.33;52155.25;5113132;28;20644;-80
2024/02/22 01:35:38;;;;;;;2.80;1.57;;;;;;;-145.69;42.41;52177.03;5112864;28;20212;-80
2024/02/22 01:38:04;;;;;;;3.37;1.40;;;;;;;-145.69;43.00;52200.81;5112859;28;20221;-80
2024/02/22 01:40:31;;;;;;;1.85;1.20;;;;;;;-145.69;43.12;52163.19;5112797;28;20190;-80
2024/02/22 01:42:57;;;;;;;2.53;1.20;;;;;;;-145.69;42.87;52163.19;5113360;28;20205;-81
2024/02/22 01:45:24;;;;;;;1.37;0.90;;;;;;;-145.69;43.42;52186.94;5112777;28;20193;-80
2024/02/22 01:47:51;;;;;;;6.83;1.23;;;;;;;-145.69;43.72;52177.03;5112877;28;20204;-81
2024/02/22 01:50:19;;;;;;;1.50;1.00;;;;;;;-145.69;43.70;52155.25;5112380;28;20633;-79
2024/02/22 01:52:45;;;;;;;2.13;1.17;;;;;;;-145.69;44.26;52177.03;5113008;28;20657;-80
2024/02/22 01:55:15;;;;;;;2.73;1.00;;;;;;;-145.69;44.74;52198.81;5112770;28;20660;-80
2024/02/22 01:57:41;;;;;;;3.00;1.00;;;;;;;-145.69;44.53;52184.97;5117383;28;20205;-80
2024/02/22 02:00:15;;;;;;;4.03;1.43;;;;;;;-145.69;45.03;52171.09;5116987;28;20208;-81
2024/02/22 02:02:42;;;;;;;1.67;1.10;;;;;;;-145.69;45.21;52171.09;5117052;28;20612;-80
2024/02/22 02:05:08;;;;;;;1.87;1.40;;;;;;;-145.69;46.00;52204.75;5116980;27;20343;-81
2024/02/22 02:07:37;;;;;;;5.60;1.30;;;;;;;-145.69;46.56;52167.13;5116612;28;20212;-79
2024/02/22 02:10:04;;;;;;;1.37;1.10;;;;;;;-145.69;46.45;52198.81;5116802;28;20193;-80
2024/02/22 02:12:30;;;;;;;1.43;1.10;;;;;;;-145.69;47.39;52194.88;5116616;28;20286;-82
2024/02/22 02:14:57;;;;;;;1.10;1.00;;;;;;;-145.69;47.58;52208.72;5116393;28;20202;-80
2024/02/22 02:17:23;;;;;;;1.97;1.30;;;;;;;-145.69;47.99;52177.03;5116151;28;20230;-79
2024/02/22 02:19:51;;;;;;;2.00;1.17;;;;;;;-145.69;47.85;52202.78;5116481;27;20274;-80
2024/02/22 02:22:28;;;;;;;1.30;1.20;;;;;;;-145.69;47.43;52190.91;5116847;28;20204;-80
2024/02/22 02:25:00;;;;;;;3.00;1.20;;;;;;;-145.69;47.43;52194.88;5116451;28;20200;-79
2024/02/22 02:27:27;;;;;;;1.47;0.90;;;;;;;-145.69;47.19;52163.19;5116532;28;20648;-80
2024/02/22 02:29:53;;;;;;;1.10;1.00;;;;;;;-145.69;47.52;52169.13;5116421;28;20201;-80
2024/02/22 02:32:19;;;;;;;1.53;1.10;;;;;;;-145.69;47.86;52202.78;5115915;27;20198;-80
2024/02/22 02:34:46;;;;;;;3.03;1.60;;;;;;;-145.69;47.60;52179.03;5116420;28;20204;-80
2024/02/22 02:37:12;;;;;;;2.07;1.20;;;;;;;-145.69;47.26;52181.00;5116401;28;20204;-79
2024/02/22 02:39:39;;;;;;;1.70;1.10;;;;;;;-145.69;47.35;52202.78;5116586;28;20609;-79
2024/02/22 02:42:07;;;;;;;2.63;1.10;;;;;;;-145.69;48.24;52175.06;5116293;28;20198;-80
2024/02/22 02:44:34;;;;;;;5.17;1.07;;;;;;;-145.69;48.25;52181.00;5116225;28;20680;-78
2024/02/22 02:47:02;;;;;;;1.90;1.33;;;;;;;-145.69;48.77;52200.81;5115557;28;20201;-79
2024/02/22 02:49:28;;;;;;;1.53;1.10;;;;;;;-145.69;49.72;52202.78;5115256;28;20746;-78
2024/02/22 02:51:55;;;;;;;1.67;1.20;;;;;;;-145.69;49.86;52184.97;5114972;28;20234;-79
2024/02/22 02:54:21;;;;;;;3.27;1.00;;;;;;;-145.69;50.33;52186.94;5114826;27;20197;-80
2024/02/22 02:56:48;;;;;;;1.47;1.10;;;;;;;-145.69;50.98;52184.97;5114511;28;20205;-79
2024/02/22 02:59:16;;;;;;;3.77;1.20;;;;;;;-145.69;51.50;52200.81;5114605;28;20225;-79
2024/02/22 03:01:46;;;;;;;2.97;1.20;;;;;;;-145.69;51.19;52182.97;5114691;28;20205;-79
2024/02/22 03:04:13;;;;;;;1.47;1.03;;;;;;;-145.69;51.68;52210.72;5114720;28;20205;-79
2024/02/22 03:06:39;;;;;;;1.07;0.90;;;;;;;-145.69;52.36;52198.81;5113975;28;20209;-79
2024/02/22 03:09:06;;;;;;;2.63;1.17;;;;;;;-145.69;53.07;52167.13;5114802;28;20562;-80
2024/02/22 03:11:32;;;;;;;2.00;1.10;;;;;;;-145.69;52.67;52186.94;5114456;28;20197;-79
2024/02/22 03:13:59;;;;;;;1.13;0.97;;;;;;;-145.69;52.67;52206.75;5114529;28;20208;-79
2024/02/22 03:16:26;;;;;;;1.73;1.10;;;;;;;-145.69;53.18;52228.53;5114453;28;20227;-79
2024/02/22 03:18:53;;;;;;;0.87;0.70;;;;;;;-145.69;53.76;52198.81;5114510;28;20253;-79
2024/02/22 03:21:20;;;;;;;1.13;1.00;;;;;;;-145.69;53.88;52190.91;5114493;28;20204;-79
2024/02/22 03:23:47;;;;;;;1.23;1.07;;;;;;;-145.69;54.09;52222.59;5113907;28;20288;-80
2024/02/22 03:26:13;;;;;;;1.50;1.10;;;;;;;-145.69;54.71;52202.78;5113622;28;20194;-79
2024/02/22 03:28:40;;;;;;;3.67;1.60;;;;;;;-145.69;55.15;52198.81;5114320;28;20556;-79
2024/02/22 03:31:07;;;;;;;1.37;1.00;;;;;;;-145.69;55.05;52234.47;5113478;28;20578;-80
2024/02/22 03:33:35;;;;;;;1.47;1.10;;;;;;;-145.69;55.35;52230.50;5113970;28;20247;-81
2024/02/22 03:36:02;;;;;;;1.63;1.07;;;;;;;-145.69;55.30;52198.81;5114380;28;20204;-81
2024/02/22 03:38:28;;;;;;;1.37;1.17;;;;;;;-145.69;56.28;52198.81;5114311;28;20221;-80
2024/02/22 03:40:54;;;;;;;2.50;1.33;;;;;;;-145.69;56.98;52222.59;5113889;28;20251;-80
2024/02/22 03:43:21;;;;;;;2.50;1.00;;;;;;;-145.69;57.34;52206.75;5113957;28;20297;-80
2024/02/22 03:45:47;;;;;;;1.83;1.33;;;;;;;-145.69;56.78;52222.59;5114022;28;20225;-80
2024/02/22 03:48:15;;;;;;;1.27;0.90;;;;;;;-145.69;57.15;52224.56;5113937;28;20197;-80
2024/02/22 03:50:44;;;;;;;3.13;1.20;;;;;;;-145.69;58.18;52202.78;5077257;28;1050419;-80
2024/02/22 03:53:11;;;;;;;1.90;1.20;;;;;;;-145.69;58.07;52228.53;5115162;28;20247;-81
2024/02/22 03:55:37;;;;;;;2.40;1.10;;;;;;;-145.69;58.33;52212.69;5114749;28;20288;-81
2024/02/22 03:58:06;;;;;;;1.67;1.23;;;;;;;-145.69;58.46;52206.75;5114694;28;20206;-80
2024/02/22 04:00:33;;;;;;;2.40;0.97;;;;;;;-145.69;58.69;52210.72;5113986;28;20228;-80
2024/02/22 04:02:59;;;;;;;1.53;1.10;;;;;;;-145.69;59.03;52204.75;5114734;28;20252;-80
2024/02/22 04:05:26;;;;;;;1.00;0.90;;;;;;;-145.69;59.44;52194.88;5114805;28;20206;-81
2024/02/22 04:07:54;;;;;;;1.20;1.07;;;;;;;-145.69;59.56;52206.75;5114754;28;20198;-79
2024/02/22 04:10:20;;;;;;;0.87;0.87;;;;;;;-145.69;60.00;52210.72;5114472;28;20201;-80
2024/02/22 04:12:47;;;;;;;2.10;1.30;;;;;;;-145.69;60.95;52212.69;5114178;28;20686;-79
2024/02/22 04:15:14;;;;;;;1.47;1.37;;;;;;;-145.69;60.99;52234.47;5114695;28;20197;-80
2024/02/22 04:17:40;;;;;;;1.57;1.13;;;;;;;-145.69;61.45;52240.41;5114061;28;20208;-80
2024/02/22 04:20:08;;;;;;;2.33;1.00;;;;;;;-145.69;61.41;52246.34;5113314;28;20250;-80
2024/02/22 04:22:46;;;;;;;2.23;1.20;;;;;;;-145.69;61.06;52194.88;5114584;28;20258;-79
2024/02/22 04:25:14;;;;;;;3.10;1.20;;;;;;;-145.69;61.00;52214.66;5114521;28;20635;-81
2024/02/22 04:27:40;;;;;;;2.03;1.30;;;;;;;-145.69;61.58;52190.91;5113753;28;20208;-81
2024/02/22 04:30:08;;;;;;;1.80;1.00;;;;;;;-145.69;61.12;52210.72;5113926;28;20197;-79
2024/02/22 04:32:35;;;;;;;1.50;1.40;;;;;;;-145.69;61.12;52242.38;5114120;28;20200;-80
2024/02/22 04:35:01;;;;;;;1.67;1.03;;;;;;;-145.69;61.39;52218.63;5113739;28;20201;-80
2024/02/22 04:37:28;;;;;;;1.53;1.10;;;;;;;-145.69;61.23;52258.22;5113649;28;20327;-80
2024/02/22 04:39:54;;;;;;;1.13;0.80;;;;;;;-145.69;61.11;52198.81;5114090;28;20229;-79
2024/02/22 04:42:22;;;;;;;1.70;1.00;;;;;;;-145.69;60.79;52220.59;5114073;28;20201;-80
2024/02/22 04:44:48;;;;;;;1.83;1.00;;;;;;;-145.69;60.49;52234.47;5113991;28;20201;-81
2024/02/22 04:47:15;;;;;;;1.30;1.07;;;;;;;-145.69;60.34;52254.28;5113759;28;20578;-79
2024/02/22 04:49:41;;;;;;;1.50;1.03;;;;;;;-145.69;60.62;52226.53;5113601;28;20617;-80
2024/02/22 04:52:08;;;;;;;1.10;1.00;;;;;;;-145.69;60.10;52216.66;5113754;28;20288;-80
2024/02/22 04:54:34;;;;;;;0.97;0.80;;;;;;;-145.69;60.26;52212.69;5113527;28;20202;-80
2024/02/22 04:57:01;;;;;;;1.27;0.90;;;;;;;-145.69;60.46;52234.47;5113680;28;20227;-81
2024/02/22 04:59:29;;;;;;;1.30;1.00;;;;;;;-145.69;60.79;52240.41;5113662;28;20221;-81
2024/02/22 05:01:55;;;;;;;1.30;1.00;;;;;;;-145.69;60.75;52210.72;5113377;28;20276;-81
2024/02/22 05:04:22;;;;;;;0.83;0.80;;;;;;;-145.69;60.31;52222.59;5113465;28;20200;-80
2024/02/22 05:06:48;;;;;;;1.07;0.90;;;;;;;-145.69;60.79;52234.47;5113334;28;20197;-80
2024/02/22 05:09:15;;;;;;;1.47;1.17;;;;;;;-145.69;60.79;52234.47;5113488;28;20204;-81
2024/02/22 05:11:45;;;;;;;1.07;0.97;;;;;;;-145.69;61.56;52216.66;5112824;28;20655;-81
2024/02/22 05:14:12;;;;;;;1.37;0.90;;;;;;;-145.69;61.64;52250.31;5113200;28;20214;-79
2024/02/22 05:16:40;;;;;;;2.17;0.90;;;;;;;-145.69;62.39;52218.63;5113180;28;20201;-79
2024/02/22 05:19:06;;;;;;;2.80;1.00;;;;;;;-145.69;62.24;52246.34;5113194;28;20233;-80
2024/02/22 05:21:33;;;;;;;1.50;1.10;;;;;;;-145.69;62.36;52232.50;5110945;28;20234;-78
2024/02/22 05:24:00;;;;;;;2.00;1.00;;;;;;;-145.69;62.38;52240.41;5112816;28;20556;-79
2024/02/22 05:26:27;;;;;;;1.33;1.10;;;;;;;-145.69;62.49;52222.59;5113089;28;20204;-79
2024/02/22 05:28:54;;;;;;;0.93;0.90;;;;;;;-145.69;62.80;52226.53;5112938;28;20235;-78
2024/02/22 05:31:24;;;;;;;1.93;1.10;;;;;;;-145.69;63.66;52224.56;5113142;28;20280;-80
2024/02/22 05:33:52;;;;;;;1.47;1.00;;;;;;;-145.69;63.91;52216.66;5112860;28;20193;-79
2024/02/22 05:36:19;;;;;;;0.87;0.80;;;;;;;-145.69;63.65;52206.75;5112725;28;20232;-80
2024/02/22 05:38:46;;;;;;;1.63;1.20;;;;;;;-145.69;63.44;52260.22;5112746;28;20289;-81
2024/02/22 05:41:13;;;;;;;1.33;1.10;;;;;;;-145.69;63.09;52216.66;5113201;28;20652;-80
2024/02/22 05:43:39;;;;;;;3.90;1.20;;;;;;;-145.69;63.23;52234.47;5113104;28;20201;-81
2024/02/22 05:46:06;;;;;;;2.10;1.23;;;;;;;-145.69;62.87;52238.44;5113207;28;20585;-80
2024/02/22 05:48:32;;;;;;;1.83;1.10;;;;;;;-145.69;62.94;52228.53;5113275;28;20202;-80
2024/02/22 05:51:00;;;;;;;2.38;1.52;;;;;;;-145.69;63.26;52232.50;5111814;28;20443;-80
2024/02/22 05:53:27;;;;;;;3.90;1.60;;;;;;;-145.69;62.77;52184.97;5112551;28;20639;-80
2024/02/22 05:55:54;;;;;;;3.07;1.40;;;;;;;-145.69;62.51;52214.66;5112641;28;20652;-80
2024/02/22 05:58:20;;;;;;;3.00;1.77;;;;;;;-145.69;62.75;52246.34;5112735;28;20602;-80
2024/02/22 06:00:48;;;;;;;3.60;1.77;;;;;;;-145.69;62.64;52226.53;5112506;28;20262;-80
2024/02/22 06:03:14;;;;;;;3.27;1.30;;;;;;;-145.69;62.51;52228.53;5112833;28;20190;-80
2024/02/22 06:05:42;;;;;;;5.67;1.53;;;;;;;-145.69;63.32;52226.53;5112767;28;20204;-80
2024/02/22 06:08:11;;;;;;;4.43;1.70;;;;;;;-145.69;63.85;52236.44;5111900;28;20241;-80
2024/02/22 06:10:38;;;;;;;3.03;1.50;;;;;;;-145.69;64.06;52272.09;5112500;28;20197;-80
2024/02/22 06:13:04;;;;;;;3.03;1.60;;;;;;;-145.69;64.02;52250.31;5112596;28;20594;-79
2024/02/22 06:15:31;;;;;;;10.27;1.97;;;;;;;-145.69;64.04;52242.38;5113011;28;20205;-79
2024/02/22 06:17:57;;;;;;;3.53;1.63;;;;;;;-145.69;64.06;52242.38;5112609;28;20205;-79
2024/02/22 06:20:24;;;;;;;2.00;1.47;;;;;;;-145.69;64.56;52262.19;5112450;28;20233;-80
2024/02/22 06:22:50;;;;;;;3.97;1.60;;;;;;;-145.69;64.35;52234.47;5112682;28;20221;-80
2024/02/22 06:25:20;;;;;;;1.93;1.57;;;;;;;-145.69;64.39;52208.72;5112743;28;20231;-79
2024/02/22 06:27:47;;;;;;;2.40;1.17;;;;;;;-145.69;64.21;52206.75;5112288;28;20193;-81
2024/02/22 06:30:15;;;;;;;2.40;1.33;;;;;;;-145.69;64.51;52228.53;5112342;28;20649;-79
2024/02/22 06:32:41;;;;;;;2.10;1.50;;;;;;;-145.69;64.11;52236.44;5112244;28;20735;-80
2024/02/22 06:35:08;;;;;;;1.13;0.90;;;;;;;-145.69;63.85;52232.50;5112490;28;20378;-80
2024/02/22 06:37:35;;;;;;;1.20;0.73;;;;;;;-145.69;64.08;52266.16;5112448;28;20193;-81
2024/02/22 06:40:02;;;;;;;0.80;0.80;;;;;;;-145.69;62.54;52200.81;5112346;28;20737;-80
2024/02/22 06:42:30;;;;;;;1.87;0.70;;;;;;;-145.69;62.32;52208.72;5114430;28;20193;-79
2024/02/22 06:44:56;;;;;;;0.73;0.73;;;;;;;-145.69;63.42;52250.31;5116395;28;20559;-80
2024/02/22 06:47:23;;;;;;;0.80;0.80;;;;;;;-145.69;63.74;52230.50;5116001;28;20607;-81
2024/02/22 06:49:49;;;;;;;1.00;0.90;;;;;;;-145.69;63.67;52246.34;5116016;28;20321;-80
2024/02/22 06:52:16;;;;;;;0.80;0.80;;;;;;;-145.69;63.71;52228.53;5116132;28;20202;-79
2024/02/22 06:54:42;;;;;;;1.00;0.60;;;;;;;-145.69;63.51;52254.28;5115789;28;20208;-80
2024/02/22 06:57:09;;;;;;;0.80;0.80;;;;;;;-145.69;63.49;52236.44;5115983;28;20197;-80
2024/02/22 06:59:39;;;;;;;0.60;0.60;;;;;;;-145.69;62.74;52216.66;5115032;28;20217;-80
2024/02/22 07:02:06;;;;;;;0.83;0.60;;;;;;;-145.69;63.51;52234.47;5115919;28;20197;-80
2024/02/22 07:04:33;;;;;;;0.73;0.73;;;;;;;-145.69;63.24;52256.25;5115461;28;20194;-80
2024/02/22 07:06:59;;;;;;;1.10;0.80;;;;;;;-145.69;62.91;52234.47;5115868;28;20212;-80
2024/02/22 07:09:25;;;;;;;0.73;0.63;;;;;;;-145.69;62.84;52218.63;5115349;28;20647;-80
2024/02/22 07:11:55;;;;;;;1.27;1.00;;;;;;;-145.69;62.50;52214.66;5115473;27;20651;-79
2024/02/22 07:14:22;;;;;;;0.80;0.67;;;;;;;-145.69;62.97;52236.44;5115376;27;20193;-80
2024/02/22 07:16:50;;;;;;;0.80;0.80;;;;;;;-145.69;63.11;52250.31;5115603;28;20205;-78
2024/02/22 07:19:17;;;;;;;1.50;0.83;;;;;;;-145.69;63.07;52228.53;5115168;28;20204;-79
2024/02/22 07:21:43;;;;;;;0.60;0.60;;;;;;;-145.69;63.89;52272.09;5115322;27;20201;-79
2024/02/22 07:24:11;;;;;;;0.77;0.70;;;;;;;-145.69;63.63;52238.44;5115136;28;20197;-79
2024/02/22 07:26:39;;;;;;;1.10;0.60;;;;;;;-145.69;63.54;52218.63;5115639;28;20281;-79
2024/02/22 07:29:06;;;;;;;7.70;3.03;;;;;;;-145.69;64.46;52240.41;5115256;28;20232;-80
2024/02/22 07:31:32;;;;;;;1.00;0.90;;;;;;;-145.69;63.99;52210.72;5114742;28;20198;-78
2024/02/22 07:34:00;;;;;;;0.90;0.90;;;;;;;-145.69;64.20;52200.81;5115473;28;20201;-81
2024/02/22 07:36:26;;;;;;;0.80;0.80;;;;;;;-145.69;64.76;52244.38;5115263;27;20201;-81
2024/02/22 07:38:53;;;;;;;0.60;0.60;;;;;;;-145.69;63.99;52222.59;5114362;28;20197;-82
2024/02/22 07:41:19;;;;;;;0.70;0.70;;;;;;;-145.69;64.11;52244.38;5115390;28;20221;-81
2024/02/22 07:43:47;;;;;;;1.63;0.80;;;;;;;-145.69;64.13;52250.31;5115280;28;20193;-80
2024/02/22 07:46:16;;;;;;;1.30;0.70;;;;;;;-145.69;64.99;52254.28;5115200;28;20193;-79
2024/02/22 07:48:43;;;;;;;0.80;0.80;;;;;;;-145.69;64.83;52254.28;5114926;27;20556;-78
2024/02/22 07:51:12;;;;;;;0.50;0.50;;;;;;;-145.69;65.13;52200.81;5114314;28;20225;-80
2024/02/22 07:53:38;;;;;;;1.90;0.70;;;;;;;-145.69;65.06;52250.31;5113950;28;20201;-80
2024/02/22 07:56:07;;;;;;;1.00;0.80;;;;;;;-145.69;65.36;52238.44;5114573;28;20280;-79
2024/02/22 07:58:45;;;;;;;1.53;0.70;;;;;;;-145.69;64.42;52256.25;5114004;28;20197;-80
2024/02/22 08:01:11;;;;;;;1.10;1.10;;;;;;;-145.69;64.35;52270.13;5114765;27;20236;-80
2024/02/22 08:03:38;;;;;;;2.80;1.00;;;;;;;-145.69;64.89;52244.38;5114575;28;20209;-80
2024/02/22 08:06:05;;;;;;;0.60;0.60;;;;;;;-145.69;64.64;52246.34;5114473;28;20209;-80
2024/02/22 08:08:33;;;;;;;0.50;0.50;;;;;;;-145.69;64.57;52234.47;5114628;28;20563;-81
2024/02/22 08:10:59;;;;;;;0.70;0.70;;;;;;;-145.69;64.38;52256.25;5114125;28;20292;-80
2024/02/22 08:13:26;;;;;;;0.63;0.60;;;;;;;-145.69;64.40;52212.69;5114342;28;20208;-80
2024/02/22 08:15:52;;;;;;;0.97;0.50;;;;;;;-145.69;64.71;52230.50;5114850;28;20242;-81
2024/02/22 08:18:19;;;;;;;0.53;0.53;;;;;;;-145.69;64.22;52254.28;5114266;28;20648;-80
2024/02/22 08:20:45;;;;;;;0.50;0.50;;;;;;;-145.69;63.73;52230.50;5114059;27;20274;-80
2024/02/22 08:23:14;;;;;;;0.50;0.50;;;;;;;-145.69;64.11;52202.78;5114555;28;20201;-80
2024/02/22 08:25:42;;;;;;;0.70;0.70;;;;;;;-145.69;63.86;52248.34;5113512;28;20190;-80
2024/02/22 08:28:09;;;;;;;1.03;0.80;;;;;;;-145.69;63.75;52240.41;5114262;28;20197;-79
2024/02/22 08:30:36;;;;;;;0.80;0.80;;;;;;;-145.69;63.54;52226.53;5113643;28;20655;-80
2024/02/22 08:33:03;;;;;;;1.80;0.70;;;;;;;-145.69;63.57;52252.28;5114006;28;20275;-78
2024/02/22 08:35:30;;;;;;;0.80;0.80;;;;;;;-145.69;63.03;52230.50;5113948;28;20237;-80
2024/02/22 08:37:58;;;;;;;0.60;0.60;;;;;;;-145.69;63.17;52210.72;5114013;28;20232;-80
2024/02/22 08:40:23;;;;;;;0.93;0.63;;;;;;;-145.69;62.67;52236.44;5114150;28;20221;-80
2024/02/22 08:42:53;;;;;;;0.57;0.57;;;;;;;-145.69;62.38;52226.53;5114060;28;20200;-80
2024/02/22 08:45:20;;;;;;;0.63;0.60;;;;;;;-145.69;62.48;52246.34;5113869;28;20193;-80
2024/02/22 08:47:46;;;;;;;0.60;0.60;;;;;;;-145.69;61.99;52220.59;5114026;28;20728;-80
2024/02/22 08:50:13;;;;;;;2.37;0.63;;;;;;;-145.69;62.49;52242.38;5113515;28;20229;-80
2024/02/22 08:52:41;;;;;;;0.60;0.60;;;;;;;-145.69;61.80;52262.19;5114052;28;20202;-79
2024/02/22 08:55:08;;;;;;;1.50;0.60;;;;;;;-145.69;61.92;52226.53;5113069;28;20285;-79
2024/02/22 08:57:35;;;;;;;0.97;0.60;;;;;;;-145.69;61.79;52196.84;5112384;28;20198;-81
2024/02/22 09:00:05;;;;;;;3.07;0.50;;;;;;;-145.69;61.44;52212.69;5112657;28;20205;-80
2024/02/22 09:02:31;;;;;;;0.50;0.50;;;;;;;-145.69;nan;52214.66;5113460;28;20194;-81
2024/02/22 09:04:58;;;;;;;0.43;0.43;;;;;;;-145.69;61.46;52244.38;5112396;28;20205;-79
2024/02/22 09:07:25;;;;;;;0.67;0.50;;;;;;;-145.69;61.29;52234.47;5113071;28;20258;-81
2024/02/22 09:09:51;;;;;;;0.50;0.50;;;;;;;-145.69;60.99;52230.50;5113079;28;20288;-80
2024/02/22 09:12:18;;;;;;;0.50;0.50;;;;;;;-145.69;60.76;52226.53;5112232;28;20201;-81
2024/02/22 09:14:45;;;;;;;2.50;0.53;;;;;;;-145.69;60.58;52214.66;5113602;28;20541;-80
2024/02/22 09:17:13;;;;;;;0.93;0.50;;;;;;;-145.69;60.08;52234.47;5113460;27;20208;-81
2024/02/22 09:19:39;;;;;;;0.50;0.50;;;;;;;-145.69;60.22;52222.59;5113350;28;20193;-79
2024/02/22 09:22:06;;;;;;;0.60;0.60;;;;;;;-145.69;59.75;52173.09;5116293;27;20560;-78
2024/02/22 09:24:32;;;;;;;1.67;0.73;;;;;;;-145.69;59.35;52218.63;5130995;27;20200;-79
2024/02/22 09:27:00;;;;;;;0.40;0.40;;;;;;;-145.69;59.76;52220.59;5115844;27;20198;-79
2024/02/22 09:29:27;;;;;;;4.30;2.40;;;;;;;-145.69;59.22;52212.69;5102973;28;20204;-81
2024/02/22 09:31:55;;;;;;;0.40;0.40;;;;;;;-145.69;59.53;52222.59;5092916;28;20206;-79
2024/02/22 09:34:24;;;;;;;0.50;0.50;;;;;;;-145.69;59.35;52218.63;5132411;27;20738;-79
2024/02/22 09:36:50;;;;;;;0.60;0.60;;;;;;;-145.69;59.17;52232.50;5133481;27;20552;-80
2024/02/22 09:39:19;;;;;;;0.50;0.50;;;;;;;-145.69;59.56;52230.50;5119928;27;20193;-79
2024/02/22 09:41:45;;;;;;;0.50;0.50;;;;;;;-145.69;59.00;52222.59;5112860;28;20316;-81
2024/02/22 09:44:13;;;;;;;0.70;0.70;;;;;;;-145.69;59.52;52210.72;5113385;28;20202;-79
2024/02/22 09:46:40;;;;;;;0.60;0.60;;;;;;;-145.69;59.06;52226.53;5106799;28;20214;-80
2024/02/22 09:49:07;;;;;;;0.87;0.53;;;;;;;-145.69;59.11;52214.66;5092695;28;20198;-81
2024/02/22 09:51:35;;;;;;;0.87;0.47;;;;;;;-145.69;59.02;52206.75;5106040;28;20205;-80
2024/02/22 09:54:02;;;;;;;0.30;0.30;;;;;;;-145.69;58.52;52228.53;5112993;28;20292;-80
2024/02/22 09:56:29;;;;;;;0.57;0.57;;;;;;;-145.69;58.20;52252.28;5112509;28;20663;-79
2024/02/22 09:58:55;;;;;;;0.60;0.60;;;;;;;-145.69;58.42;52210.72;5113016;28;20201;-82
2024/02/22 10:01:22;;;;;;;0.40;0.40;;;;;;;-145.69;57.98;52226.53;5112524;28;20706;-81
2024/02/22 10:03:49;;;;;;;0.60;0.60;;;;;;;-145.69;58.12;52186.94;5111527;28;20201;-80
2024/02/22 10:06:19;;;;;;;0.50;0.40;;;;;;;-145.69;57.65;52188.91;5112087;28;20236;-79
2024/02/22 10:08:48;;;;;;;0.30;0.30;;;;;;;-145.69;57.03;52200.81;5112510;28;20201;-80
2024/02/22 10:11:18;;;;;;;0.50;0.50;;;;;;;-145.69;56.54;52204.75;5112737;28;20556;-80
2024/02/22 10:13:44;;;;;;;0.40;0.40;;;;;;;-145.69;56.11;52194.88;5112491;28;20205;-79
2024/02/22 10:16:12;;;;;;;0.70;0.50;;;;;;;-145.69;55.76;52238.44;5112643;28;20197;-80
2024/02/22 10:18:41;;;;;;;0.40;0.40;;;;;;;-145.69;56.52;52202.78;5116809;28;20601;-80
2024/02/22 10:21:16;;;;;;;0.43;0.43;;;;;;;-145.69;55.48;52194.88;5114941;28;20217;-79
2024/02/22 10:23:42;;;;;;;0.50;0.50;;;;;;;-145.69;56.42;52181.00;5116763;28;20647;-80
2024/02/22 10:26:10;;;;;;;0.50;0.50;;;;;;;-145.69;57.44;52202.78;5116644;28;20333;-80
2024/02/22 10:28:37;;;;;;;0.40;0.40;;;;;;;-145.69;57.05;52198.81;5116681;28;20194;-79
2024/02/22 10:31:03;;;;;;;0.40;0.40;;;;;;;-145.69;57.05;52202.78;5116611;28;20242;-80
2024/02/22 10:33:31;;;;;;;0.40;0.40;;;;;;;-145.69;56.70;52186.94;5116987;28;20205;-80
2024/02/22 10:35:58;;;;;;;0.40;0.40;;;;;;;-145.69;56.13;52177.03;5116686;28;20198;-80
2024/02/22 10:38:26;;;;;;;0.50;0.50;;;;;;;-145.69;56.46;52234.47;5097363;28;20209;-81
2024/02/22 10:40:55;;;;;;;0.50;0.50;;;;;;;-145.69;56.33;52202.78;5095779;28;20253;-81
2024/02/22 10:43:23;;;;;;;0.70;0.40;;;;;;;-145.69;56.14;52194.88;5096108;28;20209;-81
2024/02/22 10:45:53;;;;;;;0.43;0.40;;;;;;;-145.69;55.94;52181.00;5095901;28;20202;-81
2024/02/22 10:48:20;;;;;;;0.50;0.50;;;;;;;-145.69;55.41;52163.19;5095708;28;20598;-79
2024/02/22 10:50:49;;;;;;;1.85;0.50;;;;;;;-145.69;56.42;52186.94;5103922;28;20233;-81
2024/02/22 10:53:16;;;;;;;0.43;0.43;;;;;;;-145.69;56.85;52204.75;5114937;28;20652;-80
2024/02/22 10:55:48;;;;;;;0.50;0.50;;;;;;;-145.69;55.35;52220.59;5116137;28;20202;-80
2024/02/22 10:58:17;;;;;;;0.40;0.40;;;;;;;-145.69;55.64;52177.03;5115947;28;20651;-80
2024/02/22 11:00:45;;;;;;;0.30;0.30;;;;;;;-145.69;55.33;52216.66;5115689;28;20221;-79
2024/02/22 11:03:13;;;;;;;0.35;0.35;;;;;;;-145.69;54.58;52175.06;5115875;28;20254;-79
2024/02/22 11:05:39;;;;;;;0.40;0.40;;;;;;;-145.69;54.51;52175.06;5095648;28;20190;-80
2024/02/22 11:08:06;;;;;;;0.55;0.50;;;;;;;-145.69;54.85;52188.91;5103311;28;20560;-80
2024/02/22 11:10:33;;;;;;;0.40;0.40;;;;;;;-145.69;55.89;52177.03;5114917;28;20205;-80
2024/02/22 11:13:03;;;;;;;0.52;0.52;;;;;;;-145.69;56.80;52175.06;5115814;28;20204;-79
2024/02/22 11:15:34;;;;;;;0.40;0.40;;;;;;;-145.69;57.50;52198.81;5115617;28;20201;-79